<?xml version="1.0" encoding="UTF-8"?>
<gpx xmlns="http://www.topografix.com/GPX/1/1" creator="GPSies http://www.gpsies.com - /var/root/Dokumente/BadEssenBarkhausen" version="1.1" xmlns:xsi="http://www.w3.org/2001/XMLSchema-instance" xsi:schemaLocation="http://www.topografix.com/GPX/1/1 http://www.topografix.com/GPX/1/1/gpx.xsd">
  <metadata>
    <name>/var/root/Dokumente/BadEssenBarkhausen</name>
    <copyright author="GPSies.com" />
    <link href="http://www.gpsies.com/">
      <text>/var/root/Dokumente/BadEssenBarkhausen on GPSies.com</text>
    </link>
    <time>2009-04-30T20:41:00Z</time>
  </metadata>
  <trk>
    <name>/var/root/Dokumente/BadEssenBarkhausen on GPSies.com</name>
    <trkseg>
      <trkpt lat="52.31962553" lon="8.336809368">
        <ele>0.0000000</ele>
        <time>2009-04-30T20:41:00Z</time>
      </trkpt>
      <trkpt lat="52.31731689" lon="8.335269885">
        <ele>0.0000000</ele>
        <time>2009-04-30T20:42:40Z</time>
      </trkpt>
      <trkpt lat="52.31699202" lon="8.336200851">
        <ele>0.0000000</ele>
        <time>2009-04-30T20:43:06Z</time>
      </trkpt>
      <trkpt lat="52.31664713" lon="8.336815211">
        <ele>0.0000000</ele>
        <time>2009-04-30T20:43:26Z</time>
      </trkpt>
      <trkpt lat="52.31655942" lon="8.337346870">
        <ele>0.0000000</ele>
        <time>2009-04-30T20:43:40Z</time>
      </trkpt>
      <trkpt lat="52.31631548" lon="8.338177072">
        <ele>0.0000000</ele>
        <time>2009-04-30T20:44:02Z</time>
      </trkpt>
      <trkpt lat="52.31619588" lon="8.338758017">
        <ele>0.0000000</ele>
        <time>2009-04-30T20:44:17Z</time>
      </trkpt>
      <trkpt lat="52.31603133" lon="8.339415509">
        <ele>0.0000000</ele>
        <time>2009-04-30T20:44:35Z</time>
      </trkpt>
      <trkpt lat="52.31602079" lon="8.340642624">
        <ele>0.0000000</ele>
        <time>2009-04-30T20:45:05Z</time>
      </trkpt>
      <trkpt lat="52.31580941" lon="8.340899731">
        <ele>0.0000000</ele>
        <time>2009-04-30T20:45:15Z</time>
      </trkpt>
      <trkpt lat="52.31547786" lon="8.340537179">
        <ele>0.0000000</ele>
        <time>2009-04-30T20:45:31Z</time>
      </trkpt>
      <trkpt lat="52.31461752" lon="8.342493167">
        <ele>0.0000000</ele>
        <time>2009-04-30T20:46:30Z</time>
      </trkpt>
      <trkpt lat="52.31426867" lon="8.343654731">
        <ele>0.0000000</ele>
        <time>2009-04-30T20:47:02Z</time>
      </trkpt>
      <trkpt lat="52.31395815" lon="8.344422241">
        <ele>0.0000000</ele>
        <time>2009-04-30T20:47:25Z</time>
      </trkpt>
      <trkpt lat="52.31352517" lon="8.345588173">
        <ele>0.0000000</ele>
        <time>2009-04-30T20:47:58Z</time>
      </trkpt>
      <trkpt lat="52.31320504" lon="8.346567684">
        <ele>0.0000000</ele>
        <time>2009-04-30T20:48:25Z</time>
      </trkpt>
      <trkpt lat="52.31300769" lon="8.348203235">
        <ele>0.0000000</ele>
        <time>2009-04-30T20:49:06Z</time>
      </trkpt>
      <trkpt lat="52.31292021" lon="8.349190810">
        <ele>0.0000000</ele>
        <time>2009-04-30T20:49:30Z</time>
      </trkpt>
      <trkpt lat="52.31246214" lon="8.348313585">
        <ele>0.0000000</ele>
        <time>2009-04-30T20:49:59Z</time>
      </trkpt>
      <trkpt lat="52.31214007" lon="8.349200036">
        <ele>0.0000000</ele>
        <time>2009-04-30T20:50:24Z</time>
      </trkpt>
      <trkpt lat="52.31180562" lon="8.350888935">
        <ele>0.0000000</ele>
        <time>2009-04-30T20:51:07Z</time>
      </trkpt>
      <trkpt lat="52.31149677" lon="8.351714589">
        <ele>0.0000000</ele>
        <time>2009-04-30T20:51:31Z</time>
      </trkpt>
      <trkpt lat="52.31105829" lon="8.353018291">
        <ele>0.0000000</ele>
        <time>2009-04-30T20:52:07Z</time>
      </trkpt>
      <trkpt lat="52.31073042" lon="8.353713234">
        <ele>0.0000000</ele>
        <time>2009-04-30T20:52:29Z</time>
      </trkpt>
      <trkpt lat="52.31013840" lon="8.352367584">
        <ele>0.0000000</ele>
        <time>2009-04-30T20:53:09Z</time>
      </trkpt>
      <trkpt lat="52.31004049" lon="8.352850189">
        <ele>0.0000000</ele>
        <time>2009-04-30T20:53:22Z</time>
      </trkpt>
      <trkpt lat="52.30984000" lon="8.353575223">
        <ele>0.0000000</ele>
        <time>2009-04-30T20:53:41Z</time>
      </trkpt>
      <trkpt lat="52.30981159" lon="8.354296290">
        <ele>0.0000000</ele>
        <time>2009-04-30T20:53:59Z</time>
      </trkpt>
      <trkpt lat="52.30957435" lon="8.354818472">
        <ele>0.0000000</ele>
        <time>2009-04-30T20:54:15Z</time>
      </trkpt>
      <trkpt lat="52.30927089" lon="8.355811315">
        <ele>0.0000000</ele>
        <time>2009-04-30T20:54:42Z</time>
      </trkpt>
      <trkpt lat="52.30925132" lon="8.356168538">
        <ele>0.0000000</ele>
        <time>2009-04-30T20:54:51Z</time>
      </trkpt>
      <trkpt lat="52.30908395" lon="8.356920876">
        <ele>0.0000000</ele>
        <time>2009-04-30T20:55:10Z</time>
      </trkpt>
      <trkpt lat="52.30878700" lon="8.357547207">
        <ele>0.0000000</ele>
        <time>2009-04-30T20:55:30Z</time>
      </trkpt>
      <trkpt lat="52.30856742" lon="8.358094002">
        <ele>0.0000000</ele>
        <time>2009-04-30T20:55:46Z</time>
      </trkpt>
      <trkpt lat="52.30820057" lon="8.358787979">
        <ele>0.0000000</ele>
        <time>2009-04-30T20:56:08Z</time>
      </trkpt>
      <trkpt lat="52.30793053" lon="8.359203763">
        <ele>0.0000000</ele>
        <time>2009-04-30T20:56:23Z</time>
      </trkpt>
      <trkpt lat="52.30714124" lon="8.360677175">
        <ele>0.0000000</ele>
        <time>2009-04-30T20:57:11Z</time>
      </trkpt>
      <trkpt lat="52.30676120" lon="8.361070855">
        <ele>0.0000000</ele>
        <time>2009-04-30T20:57:29Z</time>
      </trkpt>
      <trkpt lat="52.30647964" lon="8.361317201">
        <ele>0.0000000</ele>
        <time>2009-04-30T20:57:42Z</time>
      </trkpt>
      <trkpt lat="52.30613113" lon="8.361480654">
        <ele>0.0000000</ele>
        <time>2009-04-30T20:57:56Z</time>
      </trkpt>
      <trkpt lat="52.30592651" lon="8.362237762">
        <ele>0.0000000</ele>
        <time>2009-04-30T20:58:17Z</time>
      </trkpt>
      <trkpt lat="52.30585893" lon="8.362619535">
        <ele>0.0000000</ele>
        <time>2009-04-30T20:58:26Z</time>
      </trkpt>
      <trkpt lat="52.30590740" lon="8.362940499">
        <ele>0.0000000</ele>
        <time>2009-04-30T20:58:34Z</time>
      </trkpt>
      <trkpt lat="52.30579262" lon="8.363313304">
        <ele>0.0000000</ele>
        <time>2009-04-30T20:58:45Z</time>
      </trkpt>
      <trkpt lat="52.30549478" lon="8.363816844">
        <ele>0.0000000</ele>
        <time>2009-04-30T20:59:02Z</time>
      </trkpt>
      <trkpt lat="52.30533670" lon="8.364153621">
        <ele>0.0000000</ele>
        <time>2009-04-30T20:59:12Z</time>
      </trkpt>
      <trkpt lat="52.30492889" lon="8.364562670">
        <ele>0.0000000</ele>
        <time>2009-04-30T20:59:31Z</time>
      </trkpt>
      <trkpt lat="52.30456477" lon="8.365248202">
        <ele>0.0000000</ele>
        <time>2009-04-30T20:59:54Z</time>
      </trkpt>
      <trkpt lat="52.30425952" lon="8.365952124">
        <ele>0.0000000</ele>
        <time>2009-04-30T21:00:15Z</time>
      </trkpt>
      <trkpt lat="52.30393090" lon="8.366369827">
        <ele>0.0000000</ele>
        <time>2009-04-30T21:00:31Z</time>
      </trkpt>
      <trkpt lat="52.30348360" lon="8.366234586">
        <ele>0.0000000</ele>
        <time>2009-04-30T21:00:50Z</time>
      </trkpt>
      <trkpt lat="52.30309664" lon="8.367039929">
        <ele>0.0000000</ele>
        <time>2009-04-30T21:01:15Z</time>
      </trkpt>
      <trkpt lat="52.30270894" lon="8.367235201">
        <ele>0.0000000</ele>
        <time>2009-04-30T21:01:31Z</time>
      </trkpt>
      <trkpt lat="52.30228353" lon="8.367627065">
        <ele>0.0000000</ele>
        <time>2009-04-30T21:01:50Z</time>
      </trkpt>
      <trkpt lat="52.30183758" lon="8.368342785">
        <ele>0.0000000</ele>
        <time>2009-04-30T21:02:15Z</time>
      </trkpt>
      <trkpt lat="52.30210616" lon="8.368497243">
        <ele>0.0000000</ele>
        <time>2009-04-30T21:02:27Z</time>
      </trkpt>
      <trkpt lat="52.30183768" lon="8.369293118">
        <ele>0.0000000</ele>
        <time>2009-04-30T21:02:49Z</time>
      </trkpt>
      <trkpt lat="52.30141473" lon="8.369919720">
        <ele>0.0000000</ele>
        <time>2009-04-30T21:03:12Z</time>
      </trkpt>
      <trkpt lat="52.30112887" lon="8.370257580">
        <ele>0.0000000</ele>
        <time>2009-04-30T21:03:26Z</time>
      </trkpt>
      <trkpt lat="52.30104098" lon="8.370654473">
        <ele>0.0000000</ele>
        <time>2009-04-30T21:03:36Z</time>
      </trkpt>
      <trkpt lat="52.30028664" lon="8.371673856">
        <ele>0.0000000</ele>
        <time>2009-04-30T21:04:16Z</time>
      </trkpt>
      <trkpt lat="52.30009120" lon="8.371744758">
        <ele>0.0000000</ele>
        <time>2009-04-30T21:04:24Z</time>
      </trkpt>
      <trkpt lat="52.29950372" lon="8.372375332">
        <ele>0.0000000</ele>
        <time>2009-04-30T21:04:52Z</time>
      </trkpt>
      <trkpt lat="52.29916205" lon="8.373127237">
        <ele>0.0000000</ele>
        <time>2009-04-30T21:05:15Z</time>
      </trkpt>
      <trkpt lat="52.29889068" lon="8.373553726">
        <ele>0.0000000</ele>
        <time>2009-04-30T21:05:30Z</time>
      </trkpt>
      <trkpt lat="52.29853067" lon="8.374464264">
        <ele>0.0000000</ele>
        <time>2009-04-30T21:05:56Z</time>
      </trkpt>
      <trkpt lat="52.29828953" lon="8.374981907">
        <ele>0.0000000</ele>
        <time>2009-04-30T21:06:12Z</time>
      </trkpt>
      <trkpt lat="52.29782209" lon="8.375367353">
        <ele>0.0000000</ele>
        <time>2009-04-30T21:06:33Z</time>
      </trkpt>
      <trkpt lat="52.29735616" lon="8.375489385">
        <ele>0.0000000</ele>
        <time>2009-04-30T21:06:52Z</time>
      </trkpt>
      <trkpt lat="52.29711884" lon="8.375868673">
        <ele>0.0000000</ele>
        <time>2009-04-30T21:07:05Z</time>
      </trkpt>
      <trkpt lat="52.29705899" lon="8.376704278">
        <ele>0.0000000</ele>
        <time>2009-04-30T21:07:26Z</time>
      </trkpt>
      <trkpt lat="52.29639529" lon="8.377537490">
        <ele>0.0000000</ele>
        <time>2009-04-30T21:07:59Z</time>
      </trkpt>
      <trkpt lat="52.29594762" lon="8.377726369">
        <ele>0.0000000</ele>
        <time>2009-04-30T21:08:18Z</time>
      </trkpt>
      <trkpt lat="52.29487251" lon="8.379099887">
        <ele>0.0000000</ele>
        <time>2009-04-30T21:09:13Z</time>
      </trkpt>
      <trkpt lat="52.29464780" lon="8.379740402">
        <ele>0.0000000</ele>
        <time>2009-04-30T21:09:31Z</time>
      </trkpt>
      <trkpt lat="52.29424226" lon="8.380387705">
        <ele>0.0000000</ele>
        <time>2009-04-30T21:09:53Z</time>
      </trkpt>
      <trkpt lat="52.29431013" lon="8.380817569">
        <ele>0.0000000</ele>
        <time>2009-04-30T21:10:04Z</time>
      </trkpt>
      <trkpt lat="52.29379666" lon="8.383089957">
        <ele>0.0000000</ele>
        <time>2009-04-30T21:11:03Z</time>
      </trkpt>
      <trkpt lat="52.29363974" lon="8.384629481">
        <ele>0.0000000</ele>
        <time>2009-04-30T21:11:42Z</time>
      </trkpt>
      <trkpt lat="52.29316534" lon="8.384484442">
        <ele>0.0000000</ele>
        <time>2009-04-30T21:12:01Z</time>
      </trkpt>
      <trkpt lat="52.29259463" lon="8.385236701">
        <ele>0.0000000</ele>
        <time>2009-04-30T21:12:30Z</time>
      </trkpt>
      <trkpt lat="52.29193050" lon="8.386171555">
        <ele>0.0000000</ele>
        <time>2009-04-30T21:13:05Z</time>
      </trkpt>
      <trkpt lat="52.29143756" lon="8.387419096">
        <ele>0.0000000</ele>
        <time>2009-04-30T21:13:42Z</time>
      </trkpt>
      <trkpt lat="52.29060409" lon="8.387720577">
        <ele>0.0000000</ele>
        <time>2009-04-30T21:14:16Z</time>
      </trkpt>
      <trkpt lat="52.29011974" lon="8.387367918">
        <ele>0.0000000</ele>
        <time>2009-04-30T21:14:37Z</time>
      </trkpt>
      <trkpt lat="52.28923802" lon="8.387947626">
        <ele>0.0000000</ele>
        <time>2009-04-30T21:15:15Z</time>
      </trkpt>
      <trkpt lat="52.28903142" lon="8.388615609">
        <ele>0.0000000</ele>
        <time>2009-04-30T21:15:34Z</time>
      </trkpt>
      <trkpt lat="52.28884561" lon="8.389117549">
        <ele>0.0000000</ele>
        <time>2009-04-30T21:15:48Z</time>
      </trkpt>
      <trkpt lat="52.28850708" lon="8.388488789">
        <ele>0.0000000</ele>
        <time>2009-04-30T21:16:08Z</time>
      </trkpt>
      <trkpt lat="52.28831651" lon="8.388254707">
        <ele>0.0000000</ele>
        <time>2009-04-30T21:16:18Z</time>
      </trkpt>
      <trkpt lat="52.29271572" lon="8.383376091">
        <ele>0.0000000</ele>
        <time>2009-04-30T21:19:51Z</time>
      </trkpt>
      <trkpt lat="52.29236211" lon="8.382438129">
        <ele>0.0000000</ele>
        <time>2009-04-30T21:20:18Z</time>
      </trkpt>
      <trkpt lat="52.29194296" lon="8.381806278">
        <ele>0.0000000</ele>
        <time>2009-04-30T21:20:41Z</time>
      </trkpt>
      <trkpt lat="52.29176467" lon="8.381790970">
        <ele>0.0000000</ele>
        <time>2009-04-30T21:20:48Z</time>
      </trkpt>
      <trkpt lat="52.29126476" lon="8.381535753">
        <ele>0.0000000</ele>
        <time>2009-04-30T21:21:09Z</time>
      </trkpt>
      <trkpt lat="52.29096539" lon="8.380893454">
        <ele>0.0000000</ele>
        <time>2009-04-30T21:21:28Z</time>
      </trkpt>
      <trkpt lat="52.29064332" lon="8.380138496">
        <ele>0.0000000</ele>
        <time>2009-04-30T21:21:51Z</time>
      </trkpt>
      <trkpt lat="52.29000167" lon="8.381305391">
        <ele>0.0000000</ele>
        <time>2009-04-30T21:22:29Z</time>
      </trkpt>
      <trkpt lat="52.28964420" lon="8.382297431">
        <ele>0.0000000</ele>
        <time>2009-04-30T21:22:58Z</time>
      </trkpt>
      <trkpt lat="52.28873264" lon="8.384940607">
        <ele>0.0000000</ele>
        <time>2009-04-30T21:24:12Z</time>
      </trkpt>
      <trkpt lat="52.28849259" lon="8.385506435">
        <ele>0.0000000</ele>
        <time>2009-04-30T21:24:29Z</time>
      </trkpt>
      <trkpt lat="52.28842697" lon="8.386821246">
        <ele>0.0000000</ele>
        <time>2009-04-30T21:25:01Z</time>
      </trkpt>
      <trkpt lat="52.28829313" lon="8.388511442">
        <ele>0.0000000</ele>
        <time>2009-04-30T21:25:43Z</time>
      </trkpt>
      <trkpt lat="52.28781494" lon="8.388899278">
        <ele>0.0000000</ele>
        <time>2009-04-30T21:26:04Z</time>
      </trkpt>
      <trkpt lat="52.28707421" lon="8.389322629">
        <ele>0.0000000</ele>
        <time>2009-04-30T21:26:36Z</time>
      </trkpt>
      <trkpt lat="52.28679475" lon="8.389248994">
        <ele>0.0000000</ele>
        <time>2009-04-30T21:26:47Z</time>
      </trkpt>
      <trkpt lat="52.28670212" lon="8.388891085">
        <ele>0.0000000</ele>
        <time>2009-04-30T21:26:56Z</time>
      </trkpt>
      <trkpt lat="52.28624080" lon="8.388906432">
        <ele>0.0000000</ele>
        <time>2009-04-30T21:27:15Z</time>
      </trkpt>
      <trkpt lat="52.28520763" lon="8.390958236">
        <ele>0.0000000</ele>
        <time>2009-04-30T21:28:20Z</time>
      </trkpt>
      <trkpt lat="52.28509765" lon="8.391687279">
        <ele>0.0000000</ele>
        <time>2009-04-30T21:28:38Z</time>
      </trkpt>
      <trkpt lat="52.28523585" lon="8.392033091">
        <ele>0.0000000</ele>
        <time>2009-04-30T21:28:48Z</time>
      </trkpt>
      <trkpt lat="52.28525488" lon="8.392952577">
        <ele>0.0000000</ele>
        <time>2009-04-30T21:29:11Z</time>
      </trkpt>
      <trkpt lat="52.28542147" lon="8.393455522">
        <ele>0.0000000</ele>
        <time>2009-04-30T21:29:25Z</time>
      </trkpt>
      <trkpt lat="52.28542665" lon="8.394035299">
        <ele>0.0000000</ele>
        <time>2009-04-30T21:29:39Z</time>
      </trkpt>
      <trkpt lat="52.28578042" lon="8.394561408">
        <ele>0.0000000</ele>
        <time>2009-04-30T21:29:58Z</time>
      </trkpt>
      <trkpt lat="52.28526458" lon="8.394763623">
        <ele>0.0000000</ele>
        <time>2009-04-30T21:30:20Z</time>
      </trkpt>
      <trkpt lat="52.28459039" lon="8.394991237">
        <ele>0.0000000</ele>
        <time>2009-04-30T21:30:47Z</time>
      </trkpt>
      <trkpt lat="52.28386852" lon="8.395033169">
        <ele>0.0000000</ele>
        <time>2009-04-30T21:31:16Z</time>
      </trkpt>
      <trkpt lat="52.28333814" lon="8.396278523">
        <ele>0.0000000</ele>
        <time>2009-04-30T21:31:53Z</time>
      </trkpt>
      <trkpt lat="52.28306266" lon="8.398308550">
        <ele>0.0000000</ele>
        <time>2009-04-30T21:32:44Z</time>
      </trkpt>
      <trkpt lat="52.28256662" lon="8.399560464">
        <ele>0.0000000</ele>
        <time>2009-04-30T21:33:21Z</time>
      </trkpt>
      <trkpt lat="52.28243260" lon="8.400511400">
        <ele>0.0000000</ele>
        <time>2009-04-30T21:33:45Z</time>
      </trkpt>
      <trkpt lat="52.28252228" lon="8.401342442">
        <ele>0.0000000</ele>
        <time>2009-04-30T21:34:05Z</time>
      </trkpt>
      <trkpt lat="52.28218797" lon="8.402410219">
        <ele>0.0000000</ele>
        <time>2009-04-30T21:34:35Z</time>
      </trkpt>
      <trkpt lat="52.28209934" lon="8.402954117">
        <ele>0.0000000</ele>
        <time>2009-04-30T21:34:48Z</time>
      </trkpt>
      <trkpt lat="52.28161482" lon="8.403912273">
        <ele>0.0000000</ele>
        <time>2009-04-30T21:35:19Z</time>
      </trkpt>
      <trkpt lat="52.28081174" lon="8.406181025">
        <ele>0.0000000</ele>
        <time>2009-04-30T21:36:23Z</time>
      </trkpt>
      <trkpt lat="52.28031819" lon="8.407677152">
        <ele>0.0000000</ele>
        <time>2009-04-30T21:37:05Z</time>
      </trkpt>
      <trkpt lat="52.28008438" lon="8.407994643">
        <ele>0.0000000</ele>
        <time>2009-04-30T21:37:17Z</time>
      </trkpt>
      <trkpt lat="52.27997705" lon="8.408645680">
        <ele>0.0000000</ele>
        <time>2009-04-30T21:37:33Z</time>
      </trkpt>
      <trkpt lat="52.27957655" lon="8.409213381">
        <ele>0.0000000</ele>
        <time>2009-04-30T21:37:55Z</time>
      </trkpt>
      <trkpt lat="52.27951138" lon="8.409658631">
        <ele>0.0000000</ele>
        <time>2009-04-30T21:38:06Z</time>
      </trkpt>
      <trkpt lat="52.27923866" lon="8.410183251">
        <ele>0.0000000</ele>
        <time>2009-04-30T21:38:23Z</time>
      </trkpt>
      <trkpt lat="52.27952442" lon="8.410808857">
        <ele>0.0000000</ele>
        <time>2009-04-30T21:38:42Z</time>
      </trkpt>
      <trkpt lat="52.28003109" lon="8.410609439">
        <ele>0.0000000</ele>
        <time>2009-04-30T21:39:03Z</time>
      </trkpt>
      <trkpt lat="52.28043724" lon="8.410807982">
        <ele>0.0000000</ele>
        <time>2009-04-30T21:39:20Z</time>
      </trkpt>
      <trkpt lat="52.28058906" lon="8.410628217">
        <ele>0.0000000</ele>
        <time>2009-04-30T21:39:27Z</time>
      </trkpt>
      <trkpt lat="52.28069832" lon="8.410230015">
        <ele>0.0000000</ele>
        <time>2009-04-30T21:39:38Z</time>
      </trkpt>
      <trkpt lat="52.28111436" lon="8.409859232">
        <ele>0.0000000</ele>
        <time>2009-04-30T21:39:57Z</time>
      </trkpt>
      <trkpt lat="52.28113628" lon="8.409461619">
        <ele>0.0000000</ele>
        <time>2009-04-30T21:40:07Z</time>
      </trkpt>
      <trkpt lat="52.28144542" lon="8.409086010">
        <ele>0.0000000</ele>
        <time>2009-04-30T21:40:22Z</time>
      </trkpt>
      <trkpt lat="52.28237311" lon="8.409298602">
        <ele>0.0000000</ele>
        <time>2009-04-30T21:40:59Z</time>
      </trkpt>
      <trkpt lat="52.28255947" lon="8.409533091">
        <ele>0.0000000</ele>
        <time>2009-04-30T21:41:09Z</time>
      </trkpt>
      <trkpt lat="52.28287138" lon="8.411191537">
        <ele>0.0000000</ele>
        <time>2009-04-30T21:41:51Z</time>
      </trkpt>
      <trkpt lat="52.28292014" lon="8.411535371">
        <ele>0.0000000</ele>
        <time>2009-04-30T21:42:00Z</time>
      </trkpt>
      <trkpt lat="52.28271186" lon="8.411808186">
        <ele>0.0000000</ele>
        <time>2009-04-30T21:42:11Z</time>
      </trkpt>
      <trkpt lat="52.28288311" lon="8.413029961">
        <ele>0.0000000</ele>
        <time>2009-04-30T21:42:41Z</time>
      </trkpt>
      <trkpt lat="52.28237105" lon="8.413586239">
        <ele>0.0000000</ele>
        <time>2009-04-30T21:43:06Z</time>
      </trkpt>
      <trkpt lat="52.28177019" lon="8.413631220">
        <ele>0.0000000</ele>
        <time>2009-04-30T21:43:30Z</time>
      </trkpt>
      <trkpt lat="52.28115957" lon="8.413969258">
        <ele>0.0000000</ele>
        <time>2009-04-30T21:43:56Z</time>
      </trkpt>
      <trkpt lat="52.28060227" lon="8.414378586">
        <ele>0.0000000</ele>
        <time>2009-04-30T21:44:20Z</time>
      </trkpt>
      <trkpt lat="52.27994591" lon="8.414259178">
        <ele>0.0000000</ele>
        <time>2009-04-30T21:44:47Z</time>
      </trkpt>
    </trkseg>
  </trk>
</gpx>

